createdAt,value
2023-04-09T00:00:54.261Z,7.34
2023-04-09T00:03:00.506Z,7.35
2023-04-09T00:05:07.141Z,7.38
2023-04-09T00:07:13.269Z,7.38
2023-04-09T00:09:20.268Z,7.37
2023-04-09T00:11:27.044Z,7.39
2023-04-09T00:13:38.932Z,7.41
2023-04-09T00:15:46.595Z,7.4
2023-04-09T00:17:53.157Z,7.4
2023-04-09T00:20:00.446Z,7.39
2023-04-09T00:22:07.149Z,7.39
2023-04-09T00:24:13.493Z,7.39
2023-04-09T00:26:19.784Z,7.4
2023-04-09T00:28:26.258Z,7.41
2023-04-09T00:30:32.917Z,7.42
2023-04-09T00:32:39.589Z,7.42
2023-04-09T00:34:46.220Z,7.44
2023-04-09T00:36:53.612Z,7.44
2023-04-09T00:39:00.424Z,7.46
2023-04-09T00:41:06.643Z,7.48
2023-04-09T00:43:13.024Z,7.5
2023-04-09T00:45:19.222Z,7.52
2023-04-09T00:47:25.115Z,7.53
2023-04-09T00:49:31.920Z,7.51
2023-04-09T00:51:38.270Z,7.52
2023-04-09T00:53:44.409Z,7.51
2023-04-09T00:55:51.511Z,7.51
2023-04-09T00:57:57.841Z,7.52
2023-04-09T01:00:04.558Z,7.49
2023-04-09T01:02:10.966Z,7.48
2023-04-09T01:04:17.815Z,7.47
2023-04-09T01:06:24.568Z,7.44
2023-04-09T01:08:31.372Z,7.4
2023-04-09T01:10:37.772Z,7.42
2023-04-09T01:12:44.191Z,7.46
2023-04-09T01:14:50.862Z,7.46
2023-04-09T01:16:57.902Z,7.5
2023-04-09T01:19:04.729Z,7.51
2023-04-09T01:21:11.117Z,7.5
2023-04-09T01:23:17.715Z,7.45
2023-04-09T01:25:26.042Z,7.45
2023-04-09T01:27:32.656Z,7.46
2023-04-09T01:29:39.002Z,7.45
2023-04-09T01:31:45.364Z,7.44
2023-04-09T01:33:54.493Z,7.37
2023-04-09T01:36:01.740Z,7.35
2023-04-09T01:38:12.421Z,7.35
2023-04-09T01:40:18.942Z,7.34
2023-04-09T01:42:25.807Z,7.35
2023-04-09T01:44:32.170Z,7.38
2023-04-09T01:46:38.594Z,7.39
2023-04-09T01:48:48.279Z,7.38
2023-04-09T01:50:55.795Z,7.32
2023-04-09T01:53:02.820Z,7.35
2023-04-09T01:55:09.281Z,7.38
2023-04-09T01:57:15.818Z,7.37
2023-04-09T01:59:22.608Z,7.36
2023-04-09T02:01:28.810Z,7.34
2023-04-09T02:03:36.518Z,7.35
2023-04-09T02:05:43.224Z,7.34
2023-04-09T02:07:51.688Z,7.34
2023-04-09T02:09:57.940Z,7.35
2023-04-09T02:12:04.824Z,7.36
2023-04-09T02:14:11.491Z,7.34
2023-04-09T02:16:21.513Z,7.3
2023-04-09T02:18:28.240Z,7.31
2023-04-09T02:20:35.024Z,7.28
2023-04-09T02:22:41.564Z,7.32
2023-04-09T02:24:47.823Z,7.36
2023-04-09T02:26:55.444Z,7.37
2023-04-09T02:29:02.174Z,7.37
2023-04-09T02:31:08.827Z,7.36
2023-04-09T02:33:15.594Z,7.34
2023-04-09T02:35:22.353Z,7.35
2023-04-09T02:37:29.105Z,7.36
2023-04-09T02:39:35.446Z,7.38
2023-04-09T02:41:41.734Z,7.36
2023-04-09T02:43:48.657Z,7.35
2023-04-09T02:45:55.535Z,7.33
2023-04-09T02:48:02.021Z,7.29
2023-04-09T02:50:08.299Z,7.28
2023-04-09T02:52:17.772Z,7.31
2023-04-09T02:54:24.542Z,7.31
2023-04-09T02:56:31.409Z,7.34
2023-04-09T02:58:38.453Z,7.36
2023-04-09T03:00:45.631Z,7.38
2023-04-09T03:02:52.054Z,7.35
2023-04-09T03:04:59.051Z,7.34
2023-04-09T03:07:05.721Z,7.34
2023-04-09T03:09:12.042Z,7.33
2023-04-09T03:11:18.498Z,7.32
2023-04-09T03:13:25.045Z,7.33
2023-04-09T03:15:31.640Z,7.34
2023-04-09T03:17:38.325Z,7.33
2023-04-09T03:19:44.699Z,7.32
2023-04-09T03:21:51.342Z,7.29
2023-04-09T03:23:57.544Z,7.33
2023-04-09T03:26:04.359Z,7.34
2023-04-09T03:28:11.524Z,7.35
2023-04-09T03:30:18.645Z,7.35
2023-04-09T03:32:25.966Z,7.32
2023-04-09T03:34:32.227Z,7.33
2023-04-09T03:36:39.430Z,7.33
2023-04-09T03:38:46.250Z,7.33
2023-04-09T03:40:52.850Z,7.33
2023-04-09T03:42:59.697Z,7.33
2023-04-09T03:45:05.726Z,7.26
2023-04-09T03:47:12.144Z,7.28
2023-04-09T03:49:19.025Z,7.31
2023-04-09T03:51:25.867Z,7.31
2023-04-09T03:53:32.116Z,7.26
2023-04-09T03:55:38.911Z,7.25
2023-04-09T03:57:47.921Z,7.26
2023-04-09T03:59:55.248Z,7.29
2023-04-09T04:02:02.308Z,7.32
2023-04-09T04:04:09.551Z,7.34
2023-04-09T04:06:16.159Z,7.33
2023-04-09T04:08:23.166Z,7.34
2023-04-09T04:10:29.417Z,7.34
2023-04-09T04:12:35.808Z,7.35
2023-04-09T04:14:42.325Z,7.35
2023-04-09T04:16:48.712Z,7.37
2023-04-09T04:18:55.270Z,7.39
2023-04-09T04:21:01.554Z,7.42
2023-04-09T04:23:09.050Z,7.44
2023-04-09T04:25:16.283Z,7.45
2023-04-09T04:27:22.419Z,7.43
2023-04-09T04:29:28.741Z,7.47
2023-04-09T04:31:35.115Z,7.5
2023-04-09T04:33:41.518Z,7.5
2023-04-09T04:35:49.479Z,7.51
2023-04-09T04:37:55.848Z,7.44
2023-04-09T04:40:02.078Z,7.43
2023-04-09T04:42:08.628Z,7.44
2023-04-09T04:44:15.264Z,7.49
2023-04-09T04:46:21.468Z,7.54
2023-04-09T04:48:28.100Z,7.56
2023-04-09T04:50:34.795Z,7.6
2023-04-09T04:52:41.226Z,7.61
2023-04-09T04:54:48.013Z,7.66
2023-04-09T04:56:54.274Z,7.69
2023-04-09T04:59:00.787Z,7.73
2023-04-09T05:01:09.421Z,7.78
2023-04-09T05:03:16.412Z,7.85
2023-04-09T05:05:23.545Z,7.9
2023-04-09T05:07:29.973Z,7.95
2023-04-09T05:09:36.155Z,8.01
2023-04-09T05:11:42.776Z,8.05
2023-04-09T05:13:49.525Z,8.11
2023-04-09T05:15:55.773Z,8.16
2023-04-09T05:18:02.199Z,8.25
2023-04-09T05:20:08.571Z,8.22
2023-04-09T05:22:15.298Z,8.32
2023-04-09T05:24:21.532Z,8.28
2023-04-09T05:26:28.376Z,8.31
2023-04-09T05:28:34.649Z,8.37
2023-04-09T05:30:41.242Z,8.49
2023-04-09T05:32:47.664Z,8.6
2023-04-09T05:34:54.308Z,8.68
2023-04-09T05:37:00.490Z,8.81
2023-04-09T05:39:06.888Z,8.85
2023-04-09T05:41:13.558Z,8.87
2023-04-09T05:43:20.441Z,8.94
2023-04-09T05:45:26.677Z,9.17
2023-04-09T05:47:33.331Z,9.27
2023-04-09T05:49:40.230Z,9.29
2023-04-09T05:51:47.086Z,9.48
2023-04-09T05:53:53.786Z,9.55
2023-04-09T05:56:00.225Z,9.59
2023-04-09T05:58:06.647Z,9.42
2023-04-09T06:00:14.524Z,9.56
2023-04-09T06:02:21.539Z,9.79
2023-04-09T06:04:30.165Z,10.13
2023-04-09T06:06:37.481Z,10.04
2023-04-09T06:08:45.510Z,10.07
2023-04-09T06:10:52.088Z,10.08
2023-04-09T06:13:01.508Z,10.21
2023-04-09T06:15:09.201Z,10.37
2023-04-09T06:17:16.925Z,10.48
2023-04-09T06:19:23.575Z,10.41
2023-04-09T06:21:30.140Z,10.57
2023-04-09T06:23:37.376Z,10.58
2023-04-09T06:25:44.486Z,10.13
2023-04-09T06:27:51.441Z,10.07
2023-04-09T06:29:58.047Z,10.15
2023-04-09T06:32:06.606Z,10.39
2023-04-09T06:34:14.353Z,10.43
2023-04-09T06:36:20.801Z,10.55
2023-04-09T06:38:29.988Z,10.63
2023-04-09T06:40:37.213Z,10.84
2023-04-09T06:42:43.987Z,10.63
2023-04-09T06:44:50.795Z,10.83
2023-04-09T06:46:57.699Z,11.09
2023-04-09T06:49:03.905Z,11.08
2023-04-09T06:51:12.350Z,11.24
2023-04-09T06:53:19.429Z,11.18
2023-04-09T06:55:26.122Z,11.12
2023-04-09T06:57:33.154Z,11.35
2023-04-09T06:59:41.767Z,11.34
2023-04-09T07:01:48.817Z,11.09
2023-04-09T07:03:59.268Z,10.88
2023-04-09T07:06:10.006Z,11.33
2023-04-09T07:08:16.155Z,11.64
2023-04-09T07:10:22.651Z,12.41
2023-04-09T07:12:29.382Z,12.72
2023-04-09T07:14:35.544Z,12.93
2023-04-09T07:16:42.277Z,12.8
2023-04-09T07:18:48.904Z,12.66
2023-04-09T07:20:55.403Z,12.63
2023-04-09T07:23:03.192Z,13.07
2023-04-09T07:25:09.710Z,12.78
2023-04-09T07:27:16.676Z,12.95
2023-04-09T07:29:24.464Z,13.32
2023-04-09T07:31:30.964Z,13.46
2023-04-09T07:33:41.253Z,13.64
2023-04-09T07:35:48.095Z,13.7
2023-04-09T07:37:56.102Z,13.89
2023-04-09T07:40:05.288Z,14.7
2023-04-09T07:42:12.066Z,14.65
2023-04-09T07:44:18.859Z,13.83
2023-04-09T07:46:26.223Z,13.45
2023-04-09T07:48:35.573Z,13.09
2023-04-09T07:50:43.364Z,12.95
2023-04-09T07:52:50.058Z,13.15
2023-04-09T07:54:57.245Z,13.45
2023-04-09T07:57:04.282Z,14.59
2023-04-09T07:59:10.943Z,15.56
2023-04-09T08:01:18.010Z,15.82
2023-04-09T08:03:24.525Z,15.74
2023-04-09T08:05:32.048Z,15.8
2023-04-09T08:07:39.078Z,16.1
2023-04-09T08:09:45.497Z,15.73
2023-04-09T08:11:52.015Z,15.42
2023-04-09T08:14:01.301Z,15.67
2023-04-09T08:16:08.288Z,15.7
2023-04-09T08:18:15.168Z,15.91
2023-04-09T08:20:22.255Z,16.13
2023-04-09T08:22:29.015Z,15.53
2023-04-09T08:24:38.550Z,14.39
2023-04-09T08:26:45.185Z,15.18
2023-04-09T08:28:52.744Z,16.13
2023-04-09T08:31:00.822Z,16.37
2023-04-09T08:33:07.293Z,15.17
2023-04-09T08:35:13.917Z,15.68
2023-04-09T08:37:20.558Z,16.3
2023-04-09T08:39:28.007Z,16.58
2023-04-09T08:41:34.421Z,16.24
2023-04-09T08:43:56.747Z,15.71
2023-04-09T08:46:05.090Z,15.58
2023-04-09T08:48:12.149Z,16.37
2023-04-09T08:50:19.601Z,16.62
2023-04-09T08:52:26.317Z,17.06
2023-04-09T08:54:32.909Z,16.52
2023-04-09T08:56:39.418Z,17.16
2023-04-09T08:58:46.852Z,17.67
2023-04-09T09:00:54.717Z,17.69
2023-04-09T09:03:02.173Z,16.69
2023-04-09T09:05:09.864Z,15.76
2023-04-09T09:07:16.644Z,15.67
2023-04-09T09:09:23.689Z,15.54
2023-04-09T09:11:30.087Z,14.82
2023-04-09T09:13:36.449Z,14.45
2023-04-09T09:15:43.615Z,13.86
2023-04-09T09:17:50.499Z,13.98
2023-04-09T09:19:57.562Z,14.18
2023-04-09T09:22:04.335Z,14.17
2023-04-09T09:24:11.370Z,13.9
2023-04-09T09:26:18.183Z,13.88
2023-04-09T09:28:25.090Z,14.09
2023-04-09T09:30:31.563Z,14.05
2023-04-09T09:32:38.305Z,13.82
2023-04-09T09:34:48.552Z,14.19
2023-04-09T09:36:55.025Z,14.12
2023-04-09T09:39:01.428Z,13.81
2023-04-09T09:41:07.681Z,13.97
2023-04-09T09:43:14.665Z,14.33
2023-04-09T09:45:21.861Z,14.21
2023-04-09T09:47:28.169Z,14.25
2023-04-09T09:49:35.148Z,14.18
2023-04-09T09:51:41.867Z,14.1
2023-04-09T09:53:49.781Z,14.42
2023-04-09T09:55:56.587Z,15
2023-04-09T09:58:03.445Z,15.58
2023-04-09T10:00:10.075Z,16.76
2023-04-09T10:02:16.808Z,17.12
2023-04-09T10:04:24.191Z,16.71
2023-04-09T10:06:31.648Z,17.34
2023-04-09T10:08:38.378Z,16.97
2023-04-09T10:10:44.617Z,15.85
2023-04-09T10:12:51.616Z,16.2
2023-04-09T10:14:58.826Z,16.56
2023-04-09T10:17:05.932Z,15.27
2023-04-09T10:19:13.304Z,14.68
2023-04-09T10:21:20.423Z,15.08
2023-04-09T10:23:26.852Z,15.8
2023-04-09T10:25:34.350Z,17.5
2023-04-09T10:27:41.179Z,17.7
2023-04-09T10:29:48.127Z,18.73
2023-04-09T10:31:55.277Z,18.45
2023-04-09T10:34:01.490Z,17.19
2023-04-09T10:36:08.295Z,16.24
2023-04-09T10:38:15.199Z,16.56
2023-04-09T10:40:23.166Z,16.17
2023-04-09T10:42:31.527Z,15.99
2023-04-09T10:44:39.442Z,16.05
2023-04-09T10:46:46.737Z,15.15
2023-04-09T10:48:54.600Z,15.3
2023-04-09T10:51:02.075Z,15.45
2023-04-09T10:53:09.472Z,15.36
2023-04-09T10:55:16.501Z,14.93
2023-04-09T10:57:23.570Z,14.52
2023-04-09T10:59:30.261Z,14.24
2023-04-09T11:01:38.225Z,14.14
2023-04-09T11:03:47.139Z,14.15
2023-04-09T11:05:55.380Z,14.08
2023-04-09T11:08:02.928Z,14.15
2023-04-09T11:10:11.054Z,14.26
2023-04-09T11:12:18.438Z,14.41
2023-04-09T11:14:25.022Z,14.5
2023-04-09T11:16:32.259Z,14.5
2023-04-09T11:18:39.400Z,14.2
2023-04-09T11:20:46.362Z,14.06
2023-04-09T11:22:52.936Z,14.11
2023-04-09T11:24:59.228Z,14.03
2023-04-09T11:27:06.486Z,14.28
2023-04-09T11:29:12.873Z,14.35
2023-04-09T11:31:19.793Z,14.54
2023-04-09T11:33:28.169Z,14.75
2023-04-09T11:35:34.869Z,15.19
2023-04-09T11:37:41.562Z,15.3
2023-04-09T11:39:48.114Z,15.79
2023-04-09T11:41:54.586Z,14.99
2023-04-09T11:44:01.830Z,14.68
2023-04-09T11:46:09.157Z,14.93
2023-04-09T11:48:15.556Z,14.93
2023-04-09T11:50:22.792Z,15.19
2023-04-09T11:52:29.441Z,15.26
2023-04-09T11:54:35.866Z,14.92
2023-04-09T11:56:42.471Z,14.88
2023-04-09T11:58:49.718Z,15.15
2023-04-09T12:00:58.299Z,15.13
2023-04-09T12:03:05.069Z,15.3
2023-04-09T12:05:13.408Z,15.2
2023-04-09T12:07:21.291Z,15.43
2023-04-09T12:09:28.421Z,15.52
2023-04-09T12:11:35.031Z,15.19
2023-04-09T12:13:41.933Z,15.18
2023-04-09T12:15:49.068Z,15.07
2023-04-09T12:17:55.798Z,14.98
2023-04-09T12:20:02.831Z,14.75
2023-04-09T12:22:10.126Z,15.2
2023-04-09T12:24:16.568Z,15.33
2023-04-09T12:26:23.476Z,15.14
2023-04-09T12:28:30.382Z,15.19
2023-04-09T12:30:36.598Z,15.25
2023-04-09T12:32:43.594Z,15.13
2023-04-09T12:34:50.798Z,15.32
2023-04-09T12:36:57.598Z,15.86
2023-04-09T12:39:04.540Z,15.64
2023-04-09T12:41:11.333Z,15.76
2023-04-09T12:43:18.329Z,15.76
2023-04-09T12:45:24.722Z,15.63
2023-04-09T12:47:31.101Z,15.77
2023-04-09T12:49:38.511Z,16.07
2023-04-09T12:51:47.436Z,17.2
2023-04-09T12:53:55.202Z,17.21
2023-04-09T12:56:01.948Z,17.22
2023-04-09T12:58:08.423Z,16.93
2023-04-09T13:00:15.370Z,17.14
2023-04-09T13:02:22.107Z,16.19
2023-04-09T13:04:29.363Z,16.44
2023-04-09T13:06:36.314Z,16.21
2023-04-09T13:08:42.886Z,15.89
2023-04-09T13:10:49.757Z,16.08
2023-04-09T13:12:56.346Z,15.85
2023-04-09T13:15:03.306Z,16.06
2023-04-09T13:17:09.729Z,16.07
2023-04-09T13:19:16.737Z,16.07
2023-04-09T13:21:23.449Z,15.96
2023-04-09T13:23:30.259Z,16.26
2023-04-09T13:25:37.014Z,16.41
2023-04-09T13:27:43.399Z,16.42
2023-04-09T13:29:50.486Z,16.14
2023-04-09T13:31:57.185Z,15.62
2023-04-09T13:34:04.007Z,15.27
2023-04-09T13:36:11.419Z,15.4
2023-04-09T13:38:18.450Z,15.43
2023-04-09T13:40:25.461Z,15.8
2023-04-09T13:42:32.385Z,15.9
2023-04-09T13:44:38.919Z,16.04
2023-04-09T13:46:45.594Z,16.43
2023-04-09T13:48:52.681Z,16.31
2023-04-09T13:50:59.851Z,15.81
2023-04-09T13:53:07.135Z,15.88
2023-04-09T13:55:14.013Z,15.93
2023-04-09T13:57:20.640Z,15.58
2023-04-09T13:59:27.142Z,15.78
2023-04-09T14:01:34.210Z,15.84
2023-04-09T14:03:41.825Z,16
2023-04-09T14:05:49.838Z,16.11
2023-04-09T14:07:56.307Z,16.18
2023-04-09T14:10:03.341Z,16.15
2023-04-09T14:12:10.041Z,15.88
2023-04-09T14:14:16.500Z,15.84
2023-04-09T14:16:22.791Z,16.14
2023-04-09T14:18:29.572Z,16.29
2023-04-09T14:20:35.733Z,15.99
2023-04-09T14:22:42.682Z,15.46
2023-04-09T14:24:49.301Z,15.44
2023-04-09T14:26:55.863Z,15.49
2023-04-09T14:29:03.108Z,15.47
2023-04-09T14:31:19.261Z,15.22
2023-04-09T14:33:26.664Z,14.97
2023-04-09T14:35:33.487Z,14.67
2023-04-09T14:37:40.284Z,14.67
2023-04-09T14:39:47.069Z,14.75
2023-04-09T14:41:53.611Z,14.85
2023-04-09T14:44:00.061Z,14.87
2023-04-09T14:46:06.938Z,14.82
2023-04-09T14:48:13.655Z,14.81
2023-04-09T14:50:20.433Z,14.79
2023-04-09T14:52:28.165Z,14.8
2023-04-09T14:54:34.841Z,14.86
2023-04-09T14:56:41.389Z,14.88
2023-04-09T14:58:47.679Z,14.98
2023-04-09T15:00:54.846Z,14.85
2023-04-09T15:03:01.486Z,14.75
2023-04-09T15:05:08.546Z,14.84
2023-04-09T15:07:15.362Z,15.09
2023-04-09T15:09:21.810Z,15.11
2023-04-09T15:11:28.597Z,15.17
2023-04-09T15:13:35.833Z,15.37
2023-04-09T15:15:42.558Z,15.4
2023-04-09T15:17:49.375Z,15.39
2023-04-09T15:19:56.615Z,15.65
2023-04-09T15:22:03.541Z,15.64
2023-04-09T15:24:09.956Z,15.58
2023-04-09T15:26:16.464Z,15.31
2023-04-09T15:28:23.236Z,15.11
2023-04-09T15:30:29.880Z,15.01
2023-04-09T15:32:37.997Z,15.04
2023-04-09T15:34:44.709Z,15.15
2023-04-09T15:36:51.796Z,15.22
2023-04-09T15:38:58.903Z,15.25
2023-04-09T15:41:05.602Z,15.32
2023-04-09T15:43:12.516Z,15.25
2023-04-09T15:45:18.985Z,15.16
2023-04-09T15:47:26.576Z,15.11
2023-04-09T15:49:37.177Z,15.02
2023-04-09T15:51:44.265Z,14.83
2023-04-09T15:53:51.076Z,14.64
2023-04-09T15:55:57.857Z,14.36
2023-04-09T15:58:06.172Z,14.15
2023-04-09T16:00:14.282Z,14.07
2023-04-09T16:02:24.094Z,13.96
2023-04-09T16:04:34.181Z,13.96
2023-04-09T16:06:42.619Z,13.96
2023-04-09T16:08:50.269Z,13.95
2023-04-09T16:10:58.104Z,14.14
2023-04-09T16:13:06.341Z,14.29
2023-04-09T16:15:13.767Z,14.41
2023-04-09T16:17:21.568Z,14.37
2023-04-09T16:19:29.307Z,14.26
2023-04-09T16:21:37.056Z,14.18
2023-04-09T16:23:43.836Z,14.09
2023-04-09T16:25:52.510Z,13.99
2023-04-09T16:28:00.908Z,14.02
2023-04-09T16:30:08.644Z,14.01
2023-04-09T16:32:15.214Z,13.89
2023-04-09T16:34:22.513Z,13.85
2023-04-09T16:36:31.735Z,13.77
2023-04-09T16:38:38.485Z,13.64
2023-04-09T16:40:45.395Z,13.59
2023-04-09T16:42:52.384Z,13.51
2023-04-09T16:44:59.123Z,13.4
2023-04-09T16:47:06.099Z,13.3
2023-04-09T16:49:13.753Z,13.21
2023-04-09T16:51:22.694Z,13.15
2023-04-09T16:53:30.737Z,13.05
2023-04-09T16:55:39.533Z,12.98
2023-04-09T16:57:46.336Z,12.9
2023-04-09T16:59:54.348Z,12.81
2023-04-09T17:02:01.312Z,12.73
2023-04-09T17:04:08.720Z,12.63
2023-04-09T17:06:15.966Z,12.54
2023-04-09T17:08:23.048Z,12.48
2023-04-09T17:10:30.186Z,12.4
2023-04-09T17:12:38.640Z,12.34
2023-04-09T17:14:46.042Z,12.25
2023-04-09T17:16:52.869Z,12.2
2023-04-09T17:18:59.968Z,12.16
2023-04-09T17:21:07.929Z,12.08
2023-04-09T17:23:14.800Z,12.02
2023-04-09T17:25:21.740Z,11.95
2023-04-09T17:27:29.081Z,11.9
2023-04-09T17:29:36.275Z,11.83
2023-04-09T17:31:42.952Z,11.74
2023-04-09T17:33:49.712Z,11.67
2023-04-09T17:35:56.913Z,11.62
2023-04-09T17:38:03.515Z,11.55
2023-04-09T17:40:10.358Z,11.5
2023-04-09T17:42:17.355Z,11.44
2023-04-09T17:44:25.231Z,11.43
2023-04-09T17:46:33.583Z,11.38
2023-04-09T17:48:40.246Z,11.36
2023-04-09T17:50:46.865Z,11.31
2023-04-09T17:52:54.127Z,11.26
2023-04-09T17:55:00.832Z,11.23
2023-04-09T17:57:07.462Z,11.2
2023-04-09T17:59:14.306Z,11.16
2023-04-09T18:01:21.565Z,11.14
2023-04-09T18:03:28.571Z,11.11
2023-04-09T18:05:37.286Z,11.06
2023-04-09T18:07:45.441Z,11.03
2023-04-09T18:09:52.634Z,11.01
2023-04-09T18:11:59.610Z,10.99
2023-04-09T18:14:06.994Z,10.97
2023-04-09T18:16:13.462Z,10.98
2023-04-09T18:18:20.394Z,10.98
2023-04-09T18:20:27.247Z,10.98
2023-04-09T18:22:34.905Z,10.93
2023-04-09T18:24:41.914Z,10.9
2023-04-09T18:26:49.890Z,10.9
2023-04-09T18:28:58.449Z,10.91
2023-04-09T18:31:06.964Z,10.91
2023-04-09T18:33:14.554Z,10.92
2023-04-09T18:35:22.835Z,10.96
2023-04-09T18:37:30.839Z,10.96
2023-04-09T18:39:37.746Z,10.96
2023-04-09T18:41:44.417Z,10.93
2023-04-09T18:43:51.204Z,10.93
2023-04-09T18:45:58.034Z,10.9
2023-04-09T18:48:05.367Z,10.88
2023-04-09T18:50:12.669Z,10.87
2023-04-09T18:52:19.715Z,10.86
2023-04-09T18:54:27.115Z,10.83
2023-04-09T18:56:34.309Z,10.8
2023-04-09T18:58:41.777Z,10.76
2023-04-09T19:00:51.555Z,10.79
2023-04-09T19:03:00.541Z,10.74
2023-04-09T19:05:09.864Z,10.73
2023-04-09T19:07:18.645Z,10.72
2023-04-09T19:09:28.213Z,10.7
2023-04-09T19:11:38.152Z,10.66
2023-04-09T19:13:48.406Z,10.67
2023-04-09T19:15:56.760Z,10.64
2023-04-09T19:18:05.044Z,10.63
2023-04-09T19:20:14.225Z,10.62
2023-04-09T19:22:25.655Z,10.61
2023-04-09T19:24:33.915Z,10.57
2023-04-09T19:26:42.695Z,10.57
2023-04-09T19:28:54.481Z,10.54
2023-04-09T19:31:03.514Z,10.53
2023-04-09T19:33:13.334Z,10.45
2023-04-09T19:35:22.038Z,10.4
2023-04-09T19:37:30.986Z,10.39
2023-04-09T19:39:40.353Z,10.4
2023-04-09T19:41:47.194Z,10.37
2023-04-09T19:43:54.843Z,10.31
2023-04-09T19:46:02.348Z,10.3
2023-04-09T19:48:09.098Z,10.27
2023-04-09T19:50:16.212Z,10.23
2023-04-09T19:52:23.228Z,10.16
2023-04-09T19:54:30.108Z,10.08
2023-04-09T19:56:37.435Z,10.02
2023-04-09T19:58:44.081Z,9.93
2023-04-09T20:00:51.782Z,9.87
2023-04-09T20:02:58.869Z,9.81
2023-04-09T20:05:06.319Z,9.73
2023-04-09T20:07:13.600Z,9.69
2023-04-09T20:09:20.436Z,9.65
2023-04-09T20:11:27.014Z,9.62
2023-04-09T20:13:34.810Z,9.6
2023-04-09T20:15:41.803Z,9.59
2023-04-09T20:17:48.530Z,9.6
2023-04-09T20:19:55.551Z,9.58
2023-04-09T20:22:02.053Z,9.58
2023-04-09T20:24:09.217Z,9.6
2023-04-09T20:26:16.050Z,9.6
2023-04-09T20:28:22.790Z,9.6
2023-04-09T20:30:29.659Z,9.58
2023-04-09T20:32:36.286Z,9.58
2023-04-09T20:34:43.009Z,9.57
2023-04-09T20:36:49.687Z,9.58
2023-04-09T20:38:56.445Z,9.59
2023-04-09T20:41:02.905Z,9.57
2023-04-09T20:43:09.494Z,9.54
2023-04-09T20:45:16.240Z,9.48
2023-04-09T20:47:22.630Z,9.43
2023-04-09T20:49:29.400Z,9.4
2023-04-09T20:51:35.939Z,9.38
2023-04-09T20:53:42.567Z,9.36
2023-04-09T20:55:49.006Z,9.35
2023-04-09T20:57:55.678Z,9.37
2023-04-09T21:00:02.125Z,9.36
2023-04-09T21:02:08.983Z,9.36
2023-04-09T21:04:16.222Z,9.37
2023-04-09T21:06:24.067Z,9.37
2023-04-09T21:08:33.827Z,9.37
2023-04-09T21:10:42.236Z,9.32
2023-04-09T21:12:49.377Z,9.3
2023-04-09T21:14:55.920Z,9.28
2023-04-09T21:17:02.644Z,9.26
2023-04-09T21:19:09.632Z,9.24
2023-04-09T21:21:16.232Z,9.21
2023-04-09T21:23:22.916Z,9.18
2023-04-09T21:25:29.800Z,9.13
2023-04-09T21:27:36.283Z,9.05
2023-04-09T21:29:42.911Z,8.95
2023-04-09T21:31:49.582Z,8.89
2023-04-09T21:33:56.345Z,8.81
2023-04-09T21:36:04.727Z,8.71
2023-04-09T21:38:11.507Z,8.61
2023-04-09T21:40:18.005Z,8.48
2023-04-09T21:42:24.757Z,8.36
2023-04-09T21:44:31.632Z,8.23
2023-04-09T21:46:38.250Z,8.16
2023-04-09T21:48:45.895Z,8.04
2023-04-09T21:50:53.445Z,7.95
2023-04-09T21:53:00.246Z,7.88
2023-04-09T21:55:06.885Z,7.77
2023-04-09T21:57:13.372Z,7.66
2023-04-09T21:59:20.543Z,7.56
2023-04-09T22:01:29.277Z,7.52
2023-04-09T22:03:38.634Z,7.44
2023-04-09T22:05:46.482Z,7.35
2023-04-09T22:07:52.696Z,7.2
2023-04-09T22:09:59.390Z,7.04
2023-04-09T22:12:06.102Z,6.99
2023-04-09T22:14:12.741Z,6.9
2023-04-09T22:16:19.181Z,6.89
2023-04-09T22:18:25.674Z,6.9
2023-04-09T22:20:31.997Z,6.89
2023-04-09T22:22:39.460Z,6.88
2023-04-09T22:24:46.897Z,6.82
2023-04-09T22:26:53.710Z,6.69
2023-04-09T22:29:00.057Z,6.55
2023-04-09T22:31:11.072Z,6.54
2023-04-09T22:33:18.008Z,6.52
2023-04-09T22:35:24.532Z,6.54
2023-04-09T22:37:31.009Z,6.54
2023-04-09T22:39:37.413Z,6.52
2023-04-09T22:41:43.810Z,6.48
2023-04-09T22:43:52.140Z,6.45
2023-04-09T22:45:58.359Z,6.41
2023-04-09T22:48:04.753Z,6.32
2023-04-09T22:50:11.149Z,6.29
2023-04-09T22:52:17.579Z,6.23
2023-04-09T22:54:37.805Z,6.14
2023-04-09T22:56:44.976Z,6.13
2023-04-09T22:58:51.618Z,6.13
2023-04-09T23:00:59.453Z,6.03
2023-04-09T23:03:06.537Z,5.9
2023-04-09T23:05:13.796Z,5.87
2023-04-09T23:07:20.981Z,5.85
2023-04-09T23:09:27.566Z,5.81
2023-04-09T23:11:33.984Z,5.73
2023-04-09T23:13:40.902Z,5.64
2023-04-09T23:15:48.021Z,5.55
2023-04-09T23:17:54.794Z,5.56
2023-04-09T23:20:01.704Z,5.5
2023-04-09T23:22:08.933Z,5.48
2023-04-09T23:24:15.258Z,5.47
2023-04-09T23:26:22.126Z,5.6
2023-04-09T23:28:28.842Z,5.72
2023-04-09T23:30:35.621Z,5.73
2023-04-09T23:32:42.508Z,5.77
2023-04-09T23:34:49.144Z,5.75
2023-04-09T23:36:56.344Z,5.8
2023-04-09T23:39:03.050Z,5.73
2023-04-09T23:41:09.341Z,5.64
2023-04-09T23:43:16.109Z,5.59
2023-04-09T23:45:22.465Z,5.59
2023-04-09T23:47:28.793Z,5.57
2023-04-09T23:49:36.065Z,5.55
2023-04-09T23:51:42.487Z,5.53
2023-04-09T23:53:49.006Z,5.46
2023-04-09T23:55:58.210Z,5.41
2023-04-09T23:58:05.729Z,5.43
